Nearby METAR Reports

 

KPRB - Paso Robles, California, USA
Distance from station: SW 1mi, 1km
Updated: 08/03/2015 7:53pm
Clear
Clear
 Wind from SSW
Wind: SSW 14 mph , 22 km/h, Gust: 23 mph , 37 km/h
Temperature: 70°F , 21°C
Dew Point: 52°F , 11°C
Humidity: 53%
Barometer: 29.91 inHg , 1012.9 hPa
Clouds: Clear
Visibility: 10 miles , 16 km
2015/08/04 02:53 KPRB 040253Z AUTO 21012G20KT 10SM CLR 21/11 A2991 RMK AO2 SLP121 T02060111 53010 TSNO $
KSBP - San Luis Obispo, California, USA
Distance from station: S 30mi, 49km
Updated: 08/03/2015 7:56pm
Clear
Clear
 Wind from NW
Wind: NW 12 mph , 19 km/h
Temperature: 64°F , 18°C
Dew Point: 55°F , 13°C
Humidity: 73%
Barometer: 29.96 inHg , 1014.6 hPa
Clouds: Clear
Visibility: 10 miles , 16 km
2015/08/04 02:56 KSBP 040256Z 31010KT 10SM CLR 18/13 A2996 RMK AO2 SLP143 T01830133 53003
 
KSMX - Santa Maria, California, USA
Distance from station: S 54mi, 87km
Updated: 08/03/2015 7:51pm
Partly cloudy
Partly cloudy
 Wind from NW
Wind: NW 14 mph , 22 km/h
Temperature: 64°F , 18°C
Dew Point: 57°F , 14°C
Humidity: 78%
Barometer: 29.96 inHg , 1014.6 hPa
Clouds: Partly cloudy
Visibility: 10 miles , 16 km
Cloud details: Partly cloudy 20000 ft
2015/08/04 02:51 KSMX 040251Z 31012KT 10SM SCT200 18/14 A2996 RMK AO2 SLP147 T01830144 53006
KNLC - Lemoore Nas/Reev, California, USA
Distance from station: NE 58mi, 94km
Updated: 08/03/2015 7:56pm
Mostly cloudy
Mostly cloudy
 Wind from NNW
Wind: NNW 13 mph , 20 km/h
Temperature: 88°F , 31°C
Dew Point: 55°F , 13°C
Humidity: 33%
Barometer: 29.82 inHg , 1009.8 hPa
Clouds: Mostly cloudy
Visibility: 10 miles , 16 km
Cloud details: Mostly cloudy 23000 ft
2015/08/04 02:56 KNLC 040256Z 34011KT 10SM BKN230 31/13 A2982 RMK AO2 SLP096 RH/33 T03060133 53003
 
KVBG - Vandenberg Afb, California, USA
Distance from station: S 65mi, 105km
Updated: 08/03/2015 7:58pm
Clear
Clear
 Wind from NNW
Wind: NNW 10 mph , 17 km/h
Temperature: 63°F , 17°C
Dew Point: 59°F , 15°C
Humidity: 88%
Barometer: 29.96 inHg , 1014.6 hPa
Clouds: Clear
Visibility: 10 miles , 16 km
2015/08/04 02:58 KVBG 040258Z AUTO 33009KT 10SM CLR 17/15 A2996 RMK AO2 SLP147 T01670149 58002 TSNO
KLPC - Lompoc, California, USA
Distance from station: S 70mi, 113km
Updated: 08/03/2015 8:15pm
Clear
Clear
 Wind from WNW
Wind: WNW 8 mph , 13 km/h
Temperature: 64°F , 18°C
Dew Point: 54°F , 12°C
Humidity: 68%
Barometer: 29.96 inHg , 1014.6 hPa
Clouds: Clear
Visibility: 10 miles , 16 km
2015/08/04 03:15 KLPC 040315Z AUTO 30007KT 10SM CLR 18/12 A2996 RMK AO1
 
KHJO - Hanford, California, USA
Distance from station: NE 72mi, 116km
Updated: 08/03/2015 7:53pm
Clear
Clear
 Wind from NNW
Wind: NNW 9 mph , 15 km/h
Temperature: 88°F , 31°C
Dew Point: 57°F , 14°C
Humidity: 35%
Barometer: 29.80 inHg , 1009.1 hPa
Clouds: Clear
Visibility: 10 miles , 16 km
2015/08/04 02:53 KHJO 040253Z AUTO 33008KT 10SM CLR 31/14 A2980 RMK AO2 SLP091 T03110139 55000